Time;durP1;ratioP1;P1;durP2;ratioP2;P2;SDS_P1;SDS_P2;PMS_P1;PMS_P2;Temp;Humidity;BMP_temperature;BMP_pressure;BME280_temperature;BME280_humidity;BME280_pressure;Samples;Min_cycle;Max_cycle;Signal;HPM_P1;HPM_P2
2021/05/19 00:00:47;;;;;;;7.90;5.90;;;10.60;78.00;;;;;;5011071;28;20026;-77
2021/05/19 00:03:12;;;;;;;7.63;4.47;;;10.60;78.10;;;;;;4993988;28;20355;-76
2021/05/19 00:05:40;;;;;;;7.17;5.40;;;10.50;78.00;;;;;;5010013;28;20030;-77
2021/05/19 00:08:08;;;;;;;5.00;4.50;;;10.40;78.10;;;;;;5011979;28;20081;-77
2021/05/19 00:10:36;;;;;;;8.77;5.40;;;10.30;78.20;;;;;;5009531;28;20462;-77
2021/05/19 00:13:03;;;;;;;8.50;5.53;;;10.30;78.50;;;;;;5010227;28;20026;-78
2021/05/19 00:15:28;;;;;;;8.40;5.00;;;10.20;78.60;;;;;;5013293;28;20088;-77
2021/05/19 00:17:54;;;;;;;6.37;5.07;;;10.20;78.70;;;;;;4993462;28;20328;-77
2021/05/19 00:20:21;;;;;;;7.57;5.00;;;10.10;78.90;;;;;;5010440;28;20033;-78
2021/05/19 00:22:47;;;;;;;8.53;5.40;;;10.00;79.00;;;;;;4993470;28;20104;-77
2021/05/19 00:25:13;;;;;;;6.20;5.60;;;9.90;79.20;;;;;;4993982;28;20607;-79
2021/05/19 00:27:39;;;;;;;8.27;5.27;;;9.90;79.40;;;;;;4992704;28;20124;-78
2021/05/19 00:30:06;;;;;;;6.93;5.00;;;9.90;79.60;;;;;;4993760;28;20026;-78
2021/05/19 00:32:32;;;;;;;6.60;4.97;;;9.80;79.70;;;;;;4993996;28;20026;-77
2021/05/19 00:34:58;;;;;;;9.57;5.07;;;9.80;79.90;;;;;;5009303;28;20113;-78
2021/05/19 00:37:23;;;;;;;5.13;4.23;;;9.80;80.00;;;;;;4993761;28;20065;-77
2021/05/19 00:39:49;;;;;;;6.73;5.30;;;9.70;80.20;;;;;;5009212;28;20397;-78
2021/05/19 00:42:15;;;;;;;6.20;5.33;;;9.70;80.60;;;;;;5009642;28;20026;-78
2021/05/19 00:44:42;;;;;;;6.63;5.33;;;9.60;80.70;;;;;;5009209;28;20038;-78
2021/05/19 00:47:08;;;;;;;7.23;5.93;;;9.60;80.90;;;;;;4993769;28;20072;-77
2021/05/19 00:49:34;;;;;;;9.03;5.50;;;9.50;81.10;;;;;;4993620;28;20053;-77
2021/05/19 00:51:59;;;;;;;8.73;6.33;;;9.50;81.20;;;;;;5009012;28;20022;-77
2021/05/19 00:54:25;;;;;;;6.80;5.47;;;9.50;81.40;;;;;;5010907;28;20068;-78
2021/05/19 00:56:51;;;;;;;6.67;4.80;;;9.50;81.70;;;;;;5008606;28;20540;-78
2021/05/19 00:59:18;;;;;;;6.10;5.50;;;9.40;81.50;;;;;;5008547;28;20038;-77
2021/05/19 01:01:44;;;;;;;7.07;5.57;;;9.40;81.70;;;;;;5010212;28;20034;-78
2021/05/19 01:04:11;;;;;;;6.33;5.00;;;9.30;81.80;;;;;;5010193;28;20030;-77
2021/05/19 01:06:51;;;;;;;5.77;4.93;;;9.30;81.90;;;;;;5009499;28;20041;-78
2021/05/19 01:09:35;;;;;;;10.80;5.33;;;9.20;82.00;;;;;;5009591;28;20525;-78
2021/05/19 01:12:14;;;;;;;10.17;5.30;;;9.10;82.30;;;;;;5009114;28;20044;-76
2021/05/19 01:14:40;;;;;;;6.67;5.50;;;9.00;82.50;;;;;;5011069;28;20430;-77
2021/05/19 01:17:06;;;;;;;7.27;5.87;;;8.90;82.60;;;;;;5008963;28;20030;-76
2021/05/19 01:19:38;;;;;;;8.20;6.73;;;8.90;82.90;;;;;;5010760;28;20076;-77
2021/05/19 01:22:25;;;;;;;7.57;6.53;;;8.90;83.10;;;;;;5008528;28;20516;-78
2021/05/19 01:24:53;;;;;;;8.70;7.40;;;8.90;83.30;;;;;;5009548;28;20046;-77
2021/05/19 01:27:19;;;;;;;7.17;6.07;;;8.90;83.60;;;;;;5011659;28;20044;-78
2021/05/19 01:29:50;;;;;;;7.90;6.20;;;8.90;83.60;;;;;;5012736;28;20034;-80
2021/05/19 01:32:16;;;;;;;7.03;6.33;;;8.90;83.50;;;;;;5013270;28;20156;-77
2021/05/19 01:34:42;;;;;;;6.37;5.53;;;8.90;83.50;;;;;;5013530;28;20133;-77
2021/05/19 01:37:11;;;;;;;6.87;5.50;;;8.80;83.50;;;;;;5013629;28;20045;-77
2021/05/19 01:39:37;;;;;;;7.57;6.00;;;8.80;83.70;;;;;;5013426;28;20036;-77
2021/05/19 01:42:03;;;;;;;7.20;5.80;;;8.80;83.70;;;;;;4996346;28;20026;-78
2021/05/19 01:44:29;;;;;;;6.17;5.60;;;8.80;83.70;;;;;;5013207;28;20057;-78
2021/05/19 01:46:54;;;;;;;7.87;6.03;;;8.80;83.90;;;;;;4988895;28;20042;-78
2021/05/19 01:49:30;;;;;;;5.87;5.27;;;8.80;83.90;;;;;;4977444;28;20129;-79
2021/05/19 01:52:04;;;;;;;8.13;5.90;;;8.80;84.10;;;;;;4993291;28;20033;-78
2021/05/19 01:54:30;;;;;;;10.07;6.50;;;8.70;84.20;;;;;;4977911;28;20026;-78
2021/05/19 01:56:56;;;;;;;6.70;6.00;;;8.80;84.40;;;;;;4995873;28;20041;-79
2021/05/19 01:59:22;;;;;;;8.70;6.10;;;8.80;84.60;;;;;;5012817;28;20493;-79
2021/05/19 02:01:48;;;;;;;5.73;5.17;;;8.80;84.60;;;;;;4993362;28;20034;-80
2021/05/19 02:04:18;;;;;;;6.63;5.27;;;8.80;84.70;;;;;;5003420;28;20026;-81
2021/05/19 02:06:49;;;;;;;6.07;5.17;;;8.70;84.70;;;;;;5013726;28;20034;-78
2021/05/19 02:09:15;;;;;;;6.43;5.83;;;8.60;84.80;;;;;;5013095;28;20501;-77
2021/05/19 02:11:41;;;;;;;7.33;5.50;;;8.60;85.10;;;;;;5013445;28;20475;-76
2021/05/19 02:14:07;;;;;;;6.87;6.10;;;8.70;85.30;;;;;;5013928;28;20030;-76
2021/05/19 02:16:32;;;;;;;6.47;5.70;;;8.70;85.50;;;;;;5014383;28;20084;-76
2021/05/19 02:18:58;;;;;;;7.60;5.97;;;8.70;85.40;;;;;;5014858;28;20042;-76
2021/05/19 02:21:24;;;;;;;7.10;5.93;;;8.70;85.50;;;;;;5014050;28;20037;-77
2021/05/19 02:23:50;;;;;;;7.07;6.33;;;8.70;85.60;;;;;;5013209;28;20458;-77
2021/05/19 02:26:16;;;;;;;6.83;5.97;;;8.80;85.70;;;;;;5012303;28;20026;-76
2021/05/19 02:28:41;;;;;;;7.13;6.43;;;8.80;85.70;;;;;;5012999;28;20038;-77
2021/05/19 02:31:07;;;;;;;6.10;5.60;;;8.80;85.80;;;;;;4995667;28;20072;-76
2021/05/19 02:33:32;;;;;;;6.17;5.60;;;8.80;85.70;;;;;;5017505;28;20521;-77
2021/05/19 02:35:58;;;;;;;6.80;6.10;;;8.70;85.70;;;;;;4996201;28;20053;-80
2021/05/19 02:38:25;;;;;;;5.93;5.33;;;8.70;85.90;;;;;;5012528;28;20034;-76
2021/05/19 02:40:51;;;;;;;6.03;5.53;;;8.60;85.80;;;;;;5013583;28;20109;-76
2021/05/19 02:43:17;;;;;;;6.60;5.90;;;8.60;86.00;;;;;;5011424;28;20108;-77
2021/05/19 02:45:42;;;;;;;7.23;5.77;;;8.50;86.10;;;;;;5012370;28;20368;-78
2021/05/19 02:48:08;;;;;;;6.53;5.93;;;8.60;86.30;;;;;;4995038;28;20037;-78
2021/05/19 02:50:34;;;;;;;8.57;7.67;;;8.60;86.40;;;;;;5012487;28;20060;-77
2021/05/19 02:52:59;;;;;;;8.10;6.87;;;8.60;86.60;;;;;;5011494;28;20030;-81
2021/05/19 02:55:25;;;;;;;8.30;7.27;;;8.60;86.60;;;;;;5012876;28;20034;-77
2021/05/19 02:57:51;;;;;;;8.40;7.57;;;8.60;87.10;;;;;;5012005;28;20394;-78
2021/05/19 03:00:17;;;;;;;8.63;7.27;;;8.50;86.70;;;;;;5010609;28;20623;-76
2021/05/19 03:02:42;;;;;;;9.03;8.23;;;8.50;86.80;;;;;;4992204;28;20053;-77
2021/05/19 03:05:09;;;;;;;9.43;8.53;;;8.50;87.10;;;;;;4991949;28;20030;-78
2021/05/19 03:07:35;;;;;;;9.57;8.57;;;8.40;87.10;;;;;;5007958;28;20053;-77
2021/05/19 03:10:01;;;;;;;9.33;8.53;;;8.40;87.30;;;;;;5011818;28;20359;-81
2021/05/19 03:12:27;;;;;;;10.63;9.73;;;8.40;87.40;;;;;;5012477;28;20034;-77
2021/05/19 03:14:52;;;;;;;10.30;9.27;;;8.40;87.50;;;;;;5012968;28;20040;-77
2021/05/19 03:17:18;;;;;;;10.93;9.93;;;8.40;87.60;;;;;;4994419;28;20062;-76
2021/05/19 03:19:44;;;;;;;10.37;9.37;;;8.50;87.60;;;;;;4995620;28;20049;-77
2021/05/19 03:22:09;;;;;;;11.13;10.07;;;8.50;87.60;;;;;;5009736;28;20148;-77
2021/05/19 03:24:35;;;;;;;10.20;9.20;;;8.50;87.60;;;;;;4994804;28;20044;-77
2021/05/19 03:27:01;;;;;;;11.43;10.37;;;8.60;87.60;;;;;;5013031;28;20125;-77
2021/05/19 03:29:27;;;;;;;11.83;10.80;;;8.60;87.60;;;;;;5010470;28;20266;-76
2021/05/19 03:31:52;;;;;;;11.73;10.57;;;8.60;87.70;;;;;;5011466;28;20034;-77
2021/05/19 03:34:18;;;;;;;11.73;10.63;;;8.70;87.80;;;;;;4994035;28;20030;-77
2021/05/19 03:36:44;;;;;;;12.73;11.57;;;8.80;87.90;;;;;;5012317;28;20092;-77
2021/05/19 03:39:11;;;;;;;11.43;10.33;;;8.80;87.90;;;;;;4993567;28;20033;-78
2021/05/19 03:41:38;;;;;;;12.37;11.17;;;8.80;87.70;;;;;;5011095;28;20037;-77
2021/05/19 03:44:05;;;;;;;13.27;12.03;;;8.90;87.70;;;;;;5011042;28;20036;-77
2021/05/19 03:46:31;;;;;;;14.00;12.60;;;9.00;87.40;;;;;;4989368;28;20376;-77
2021/05/19 03:48:58;;;;;;;13.27;12.07;;;9.10;87.20;;;;;;5010868;28;20113;-77
2021/05/19 03:51:24;;;;;;;11.60;10.50;;;9.20;87.00;;;;;;5009132;28;20036;-78
2021/05/19 03:53:51;;;;;;;13.13;11.80;;;9.20;86.80;;;;;;5010457;28;20068;-76
2021/05/19 03:56:17;;;;;;;12.37;11.27;;;9.40;86.80;;;;;;5009517;28;20525;-77
2021/05/19 03:58:44;;;;;;;12.57;11.47;;;9.40;86.50;;;;;;5010957;28;20415;-77
2021/05/19 04:01:10;;;;;;;11.73;10.73;;;9.60;86.20;;;;;;5010514;28;20029;-81
2021/05/19 04:03:36;;;;;;;12.43;11.17;;;9.70;86.00;;;;;;5010254;28;20030;-77
2021/05/19 04:06:02;;;;;;;11.40;10.13;;;9.80;86.30;;;;;;5011693;28;20434;-77
2021/05/19 04:08:36;;;;;;;11.83;10.73;;;10.10;86.30;;;;;;5009454;28;20441;-76
2021/05/19 04:11:02;;;;;;;12.10;10.90;;;10.30;86.10;;;;;;5011946;28;20052;-77
2021/05/19 04:13:28;;;;;;;10.97;9.87;;;10.50;85.70;;;;;;5009740;28;20372;-77
2021/05/19 04:15:54;;;;;;;9.63;8.80;;;10.70;85.00;;;;;;5010052;28;20018;-77
2021/05/19 04:18:21;;;;;;;10.47;9.37;;;11.00;84.20;;;;;;5009787;28;20044;-77
2021/05/19 04:20:48;;;;;;;9.73;8.83;;;11.50;82.90;;;;;;4994279;28;20113;-78
2021/05/19 04:23:14;;;;;;;9.40;8.30;;;11.80;81.10;;;;;;5009610;28;20025;-81
2021/05/19 04:25:40;;;;;;;9.37;8.50;;;11.80;80.40;;;;;;5009573;28;20033;-78
2021/05/19 04:28:06;;;;;;;8.47;7.67;;;11.90;80.00;;;;;;5010483;28;20049;-77
2021/05/19 04:30:33;;;;;;;8.83;7.73;;;12.30;79.30;;;;;;5011048;28;20036;-78
2021/05/19 04:32:58;;;;;;;8.60;7.50;;;13.00;77.50;;;;;;4993951;28;20117;-78
2021/05/19 04:35:24;;;;;;;7.47;6.57;;;13.20;75.90;;;;;;5010399;28;20101;-79
2021/05/19 04:37:50;;;;;;;8.17;7.37;;;12.90;75.90;;;;;;4993877;28;20030;-78
2021/05/19 04:40:15;;;;;;;8.30;7.47;;;12.60;76.40;;;;;;4993702;28;20470;-79
2021/05/19 04:42:41;;;;;;;7.83;7.10;;;12.30;76.90;;;;;;5010856;28;20030;-78
2021/05/19 04:45:07;;;;;;;8.57;6.67;;;12.20;77.30;;;;;;5010202;28;20034;-78
2021/05/19 04:47:33;;;;;;;8.57;7.63;;;12.10;77.40;;;;;;4982214;28;20088;-77
2021/05/19 04:49:59;;;;;;;7.10;6.47;;;12.10;77.40;;;;;;4996073;28;20034;-78
2021/05/19 04:52:25;;;;;;;8.20;7.50;;;11.90;77.70;;;;;;4992853;28;20037;-78
2021/05/19 04:54:50;;;;;;;8.17;7.20;;;11.70;77.80;;;;;;5009922;28;20096;-78
2021/05/19 04:57:17;;;;;;;9.50;8.53;;;11.60;78.20;;;;;;5009290;28;20033;-78
2021/05/19 04:59:43;;;;;;;8.70;7.13;;;11.60;78.30;;;;;;5008956;28;20029;-78
2021/05/19 05:02:09;;;;;;;9.60;7.57;;;11.60;78.30;;;;;;5009639;28;20060;-77
2021/05/19 05:04:34;;;;;;;9.57;8.10;;;11.60;78.40;;;;;;5008846;28;20485;-77
2021/05/19 05:07:03;;;;;;;8.80;7.90;;;11.60;78.20;;;;;;4993193;28;20038;-79
2021/05/19 05:09:28;;;;;;;8.27;7.47;;;12.00;77.80;;;;;;4977223;28;20050;-78
2021/05/19 05:11:54;;;;;;;8.93;7.97;;;12.70;76.60;;;;;;4993409;28;20079;-77
2021/05/19 05:14:21;;;;;;;12.00;7.47;;;13.80;74.00;;;;;;4993209;28;20532;-77
2021/05/19 05:16:48;;;;;;;6.38;5.70;;;15.40;70.00;;;;;;5008594;28;20042;-77
2021/05/19 05:19:14;;;;;;;11.23;5.95;;;16.50;66.70;;;;;;5009607;28;20069;-78
2021/05/19 05:21:40;;;;;;;7.75;4.97;;;17.20;63.60;;;;;;4992231;28;20084;-78
2021/05/19 05:24:06;;;;;;;7.25;5.03;;;17.20;62.90;;;;;;4993949;28;20030;-77
2021/05/19 05:26:32;;;;;;;6.78;5.15;;;16.80;63.10;;;;;;5007831;28;20382;-81
2021/05/19 05:28:58;;;;;;;6.15;4.65;;;16.30;64.20;;;;;;4999730;28;20034;-81
2021/05/19 05:31:23;;;;;;;9.45;5.20;;;15.70;65.60;;;;;;5009602;28;20034;-82
2021/05/19 05:33:50;;;;;;;11.27;5.07;;;15.20;66.90;;;;;;5009171;28;20481;-81
2021/05/19 05:36:16;;;;;;;8.23;5.20;;;14.80;68.10;;;;;;5009534;28;20034;-81
2021/05/19 05:38:42;;;;;;;8.63;5.63;;;14.60;68.80;;;;;;4992231;28;20544;-81
2021/05/19 05:41:08;;;;;;;9.55;5.50;;;14.50;69.40;;;;;;4993635;28;20053;-82
2021/05/19 05:43:33;;;;;;;11.77;6.20;;;14.60;69.60;;;;;;4993296;28;20036;-84
2021/05/19 05:45:59;;;;;;;9.25;5.32;;;14.60;69.50;;;;;;5012350;28;20104;-84
2021/05/19 05:48:25;;;;;;;12.38;5.50;;;14.70;69.50;;;;;;5010561;28;20038;-83
2021/05/19 05:50:50;;;;;;;9.57;5.25;;;15.20;68.70;;;;;;5009378;28;20392;-83
2021/05/19 05:53:16;;;;;;;10.88;4.70;;;15.90;67.70;;;;;;5010552;28;20065;-83
2021/05/19 05:55:42;;;;;;;8.43;4.95;;;16.50;65.90;;;;;;5009228;28;20033;-81
2021/05/19 05:58:07;;;;;;;10.70;4.70;;;17.10;64.60;;;;;;5010408;28;20060;-83
2021/05/19 06:00:33;;;;;;;11.07;4.18;;;17.60;62.90;;;;;;5010429;28;20065;-85
2021/05/19 06:02:58;;;;;;;10.60;4.50;;;17.80;62.20;;;;;;4993408;28;20084;-79
2021/05/19 06:05:24;;;;;;;11.82;4.75;;;18.10;61.70;;;;;;4991197;28;20113;-79
2021/05/19 06:07:50;;;;;;;12.23;4.75;;;18.00;61.40;;;;;;4980007;28;20046;-78
2021/05/19 06:10:16;;;;;;;15.18;6.32;;;17.70;61.90;;;;;;5002809;28;20528;-78
2021/05/19 06:12:42;;;;;;;10.55;3.90;;;17.40;61.40;;;;;;4992400;28;20517;-77
2021/05/19 06:15:08;;;;;;;9.93;4.00;;;17.10;62.90;;;;;;5012611;28;20093;-77
2021/05/19 06:17:34;;;;;;;6.32;4.05;;;17.20;63.10;;;;;;5013399;28;20041;-84
2021/05/19 06:19:59;;;;;;;10.35;4.05;;;17.30;63.00;;;;;;5012048;28;20033;-78
2021/05/19 06:22:25;;;;;;;8.55;4.03;;;17.40;62.40;;;;;;4996020;28;20037;-77
2021/05/19 06:24:50;;;;;;;11.23;4.53;;;17.40;62.40;;;;;;4995613;28;20030;-78
2021/05/19 06:27:16;;;;;;;8.40;3.97;;;17.50;63.00;;;;;;5012241;28;20457;-77
2021/05/19 06:29:42;;;;;;;12.02;3.92;;;17.90;61.70;;;;;;5018552;28;20054;-78
2021/05/19 06:32:08;;;;;;;7.38;3.28;;;18.40;60.40;;;;;;4976871;28;20041;-78
2021/05/19 06:34:36;;;;;;;9.45;3.67;;;18.60;59.70;;;;;;4993453;28;20082;-78
2021/05/19 06:37:03;;;;;;;6.97;3.20;;;18.30;60.10;;;;;;4992260;28;20060;-77
2021/05/19 06:39:28;;;;;;;9.18;3.40;;;17.90;61.00;;;;;;4993092;28;20038;-76
2021/05/19 06:41:54;;;;;;;6.93;2.85;;;17.60;61.70;;;;;;4992278;28;20539;-77
2021/05/19 06:44:20;;;;;;;9.13;3.35;;;17.30;62.40;;;;;;4995872;28;20130;-76
2021/05/19 06:46:47;;;;;;;9.15;2.78;;;17.10;63.00;;;;;;4997849;28;20065;-76
2021/05/19 06:49:13;;;;;;;10.90;3.53;;;16.80;63.30;;;;;;5012120;28;20034;-76
2021/05/19 06:51:41;;;;;;;7.07;2.88;;;16.80;63.10;;;;;;5013684;28;20022;-82
2021/05/19 06:54:06;;;;;;;11.98;3.50;;;16.60;64.00;;;;;;5012232;28;20025;-76
2021/05/19 06:56:32;;;;;;;10.43;2.97;;;16.40;64.00;;;;;;4994483;28;20042;-77
2021/05/19 06:58:58;;;;;;;9.40;3.47;;;16.20;64.70;;;;;;4997455;28;20026;-75
2021/05/19 07:01:24;;;;;;;7.00;3.20;;;16.20;65.20;;;;;;4979660;28;20092;-76
2021/05/19 07:03:50;;;;;;;8.23;3.10;;;16.30;64.90;;;;;;5012608;28;20085;-75
2021/05/19 07:06:20;;;;;;;10.38;3.58;;;16.30;65.20;;;;;;5011998;28;20034;-75
2021/05/19 07:08:46;;;;;;;11.45;3.45;;;16.10;65.20;;;;;;4994976;28;20056;-76
2021/05/19 07:11:13;;;;;;;10.13;4.15;;;16.00;66.00;;;;;;5012059;28;20029;-75
2021/05/19 07:13:39;;;;;;;11.57;3.42;;;15.90;66.00;;;;;;4979736;28;20458;-77
2021/05/19 07:16:05;;;;;;;11.52;3.90;;;15.60;66.30;;;;;;5012263;28;20018;-76
2021/05/19 07:18:30;;;;;;;9.18;3.80;;;15.50;66.80;;;;;;5022624;28;20038;-75
2021/05/19 07:20:57;;;;;;;9.45;3.45;;;15.50;67.00;;;;;;5010385;28;20093;-76
2021/05/19 07:23:22;;;;;;;9.80;3.38;;;15.60;67.30;;;;;;5012869;28;20042;-75
2021/05/19 07:25:49;;;;;;;8.00;3.80;;;15.80;67.00;;;;;;5016083;28;20156;-79
2021/05/19 07:28:15;;;;;;;12.45;3.92;;;16.00;66.90;;;;;;5015640;28;20045;-76
2021/05/19 07:30:43;;;;;;;8.35;3.78;;;16.10;66.50;;;;;;5014877;28;20030;-77
2021/05/19 07:33:10;;;;;;;8.90;4.28;;;16.20;66.40;;;;;;5004561;28;20480;-77
2021/05/19 07:35:36;;;;;;;11.05;4.53;;;16.30;66.00;;;;;;5015289;28;20029;-78
2021/05/19 07:38:02;;;;;;;10.35;4.13;;;16.30;65.80;;;;;;4997151;28;20248;-78
2021/05/19 07:40:28;;;;;;;13.85;4.20;;;16.50;65.80;;;;;;5014072;28;20026;-77
2021/05/19 07:42:54;;;;;;;13.88;3.83;;;16.50;65.70;;;;;;5000295;28;20029;-78
2021/05/19 07:45:20;;;;;;;9.98;3.80;;;16.70;65.70;;;;;;4999287;28;20030;-78
2021/05/19 07:47:46;;;;;;;11.30;4.13;;;16.80;64.90;;;;;;5016673;28;20052;-78
2021/05/19 07:50:13;;;;;;;8.68;3.30;;;16.80;64.40;;;;;;5016130;28;20058;-79
2021/05/19 07:52:39;;;;;;;10.68;3.90;;;16.90;64.90;;;;;;5017615;28;20148;-78
2021/05/19 07:55:08;;;;;;;12.68;3.45;;;17.00;64.40;;;;;;4998759;28;20175;-79
2021/05/19 07:57:50;;;;;;;11.60;3.67;;;17.00;64.30;;;;;;5018521;28;20045;-79
2021/05/19 08:03:08;;;;;;;10.65;2.60;;;16.90;65.00;;;;;;4989040;28;20037;-78
2021/05/19 08:05:34;;;;;;;10.10;2.17;;;16.90;64.70;;;;;;5002896;28;20076;-78
2021/05/19 08:08:00;;;;;;;12.35;3.20;;;16.80;64.50;;;;;;5012861;28;20050;-78
2021/05/19 08:10:25;;;;;;;9.45;2.90;;;16.70;64.80;;;;;;5015937;28;20084;-79
2021/05/19 08:12:52;;;;;;;10.23;2.90;;;16.50;65.10;;;;;;5023816;28;20029;-79
2021/05/19 08:15:18;;;;;;;10.60;3.97;;;16.30;65.30;;;;;;5031370;28;20466;-79
2021/05/19 08:17:43;;;;;;;8.43;3.63;;;16.20;65.00;;;;;;5030473;28;20037;-78
2021/05/19 08:20:10;;;;;;;9.23;3.55;;;16.30;65.30;;;;;;5026568;28;20046;-78
2021/05/19 08:22:36;;;;;;;10.52;4.10;;;16.50;65.10;;;;;;5015991;28;20160;-79
2021/05/19 08:25:02;;;;;;;8.52;3.80;;;16.60;64.20;;;;;;5026462;28;20557;-79
2021/05/19 08:27:28;;;;;;;8.18;3.42;;;16.50;64.10;;;;;;5023681;28;20032;-79
2021/05/19 08:29:53;;;;;;;7.60;4.03;;;16.60;64.20;;;;;;5012054;28;20026;-78
2021/05/19 08:32:19;;;;;;;10.48;3.92;;;16.80;64.10;;;;;;5009589;28;20096;-78
2021/05/19 08:34:46;;;;;;;8.65;3.75;;;16.80;63.80;;;;;;5010637;28;20397;-79
2021/05/19 08:37:11;;;;;;;6.93;3.80;;;17.00;63.70;;;;;;5009381;28;20092;-78
2021/05/19 08:39:37;;;;;;;11.27;3.45;;;17.20;63.70;;;;;;4994392;28;20089;-78
2021/05/19 08:42:03;;;;;;;11.52;4.15;;;17.30;63.20;;;;;;4994056;28;20053;-77
2021/05/19 08:44:29;;;;;;;10.80;4.68;;;17.40;62.60;;;;;;5010919;28;20034;-77
2021/05/19 08:46:58;;;;;;;7.40;3.97;;;17.70;62.60;;;;;;4995277;28;20040;-76
2021/05/19 08:49:26;;;;;;;7.32;3.72;;;17.90;61.90;;;;;;5012935;28;20025;-77
2021/05/19 08:51:54;;;;;;;6.43;3.50;;;18.00;61.60;;;;;;4995559;28;20022;-77
2021/05/19 08:54:20;;;;;;;8.52;3.03;;;18.30;61.20;;;;;;5010851;28;20034;-77
2021/05/19 08:56:50;;;;;;;9.27;4.03;;;18.40;59.60;;;;;;5011478;28;20060;-79
2021/05/19 08:59:17;;;;;;;8.18;3.22;;;18.60;59.90;;;;;;5010338;28;20025;-76
2021/05/19 09:01:45;;;;;;;7.00;2.50;;;18.80;59.10;;;;;;4994173;28;20037;-77
2021/05/19 09:04:16;;;;;;;8.38;3.10;;;19.00;59.00;;;;;;5010163;28;20026;-77
2021/05/19 09:06:43;;;;;;;6.15;2.75;;;19.10;57.70;;;;;;5011325;28;20482;-77
2021/05/19 09:09:26;;;;;;;9.63;2.70;;;19.00;58.60;;;;;;5012090;28;20046;-77
2021/05/19 09:12:04;;;;;;;8.82;2.53;;;19.20;58.30;;;;;;5013884;28;20553;-78
2021/05/19 09:14:38;;;;;;;8.18;2.58;;;20.00;57.80;;;;;;5013060;28;20022;-77
2021/05/19 09:17:17;;;;;;;9.45;2.90;;;20.90;55.50;;;;;;5012421;28;20026;-77
2021/05/19 09:19:43;;;;;;;5.63;1.83;;;21.40;52.50;;;;;;5012684;28;20057;-79
2021/05/19 09:22:22;;;;;;;8.75;1.63;;;21.40;52.30;;;;;;5014132;28;20057;-80
2021/05/19 09:24:48;;;;;;;5.53;1.52;;;21.30;52.20;;;;;;5014285;28;20533;-79
2021/05/19 09:27:15;;;;;;;5.03;1.25;;;21.20;51.50;;;;;;5013346;28;20034;-79
2021/05/19 09:29:44;;;;;;;4.13;0.70;;;20.90;51.00;;;;;;5023813;28;20018;-79
2021/05/19 09:32:13;;;;;;;6.10;1.25;;;20.70;51.60;;;;;;5011936;28;20081;-84
2021/05/19 09:34:47;;;;;;;5.72;0.70;;;21.10;51.20;;;;;;5012888;28;20030;-81
2021/05/19 09:37:15;;;;;;;3.60;0.60;;;20.80;50.30;;;;;;5016036;28;20120;-80
2021/05/19 09:39:53;;;;;;;4.78;0.93;;;20.70;51.50;;;;;;5013710;28;20018;-80
2021/05/19 09:42:20;;;;;;;4.88;1.00;;;20.50;52.20;;;;;;5011556;28;20030;-81
2021/05/19 09:44:48;;;;;;;6.35;0.90;;;20.50;52.20;;;;;;4981687;28;20030;-80
2021/05/19 09:47:41;;;;;;;5.38;0.98;;;20.50;52.20;;;;;;5013095;28;20380;-79
2021/05/19 09:50:18;;;;;;;4.15;0.80;;;20.50;52.40;;;;;;5015861;28;20026;-78
2021/05/19 09:53:13;;;;;;;6.30;0.95;;;20.70;52.50;;;;;;5027909;28;20052;-79
2021/05/19 09:55:41;;;;;;;5.03;1.13;;;21.30;50.60;;;;;;5015780;28;20030;-80
2021/05/19 09:58:10;;;;;;;2.85;0.70;;;21.60;50.00;;;;;;5031084;28;20029;-80
2021/05/19 10:00:36;;;;;;;4.50;0.90;;;21.70;49.30;;;;;;5013220;28;20157;-81
2021/05/19 10:03:03;;;;;;;2.90;0.70;;;21.70;49.10;;;;;;5012986;28;20488;-79
2021/05/19 10:07:55;;;;;;;4.88;0.80;;;21.70;49.20;;;;;;5014503;28;20172;-79
2021/05/19 10:10:23;;;;;;;5.85;0.90;;;21.60;48.80;;;;;;5013819;28;20034;-83
2021/05/19 10:12:48;;;;;;;5.40;0.65;;;21.70;49.40;;;;;;5014426;28;20145;-82
2021/05/19 10:15:29;;;;;;;4.00;0.77;;;22.20;49.40;;;;;;5013082;28;20117;-84
2021/05/19 10:18:02;;;;;;;3.10;0.80;;;22.80;47.40;;;;;;5034194;28;20026;-83
2021/05/19 10:20:28;;;;;;;;;;;23.40;46.60;;;;;;5022720;28;20033;-84
2021/05/19 10:22:54;;;;;;;4.90;0.90;;;24.00;46.30;;;;;;5022059;28;19912;-83
2021/05/19 10:25:36;;;;;;;2.53;0.77;;;24.60;44.60;;;;;;5005440;28;20034;-87
2021/05/19 10:28:03;;;;;;;3.35;0.65;;;24.90;44.10;;;;;;5002795;28;20031;-80
2021/05/19 10:30:45;;;;;;;4.57;0.82;;;25.00;41.70;;;;;;4996054;28;20038;-81
2021/05/19 10:33:29;;;;;;;6.43;1.38;;;24.90;42.70;;;;;;5012508;28;20129;-82
2021/05/19 10:36:00;;;;;;;4.63;1.00;;;24.40;43.20;;;;;;5008838;28;20478;-80
2021/05/19 10:38:35;;;;;;;4.82;0.98;;;24.00;43.50;;;;;;4995190;28;20092;-82
2021/05/19 10:41:05;;;;;;;5.72;0.80;;;23.50;44.20;;;;;;5012214;28;20060;-79
2021/05/19 10:43:54;;;;;;;6.30;0.82;;;23.10;44.50;;;;;;5015351;28;20025;-80
2021/05/19 10:47:15;;;;;;;5.10;0.60;;;22.20;46.00;;;;;;5009930;28;20030;-82
2021/05/19 10:49:46;;;;;;;3.08;0.75;;;21.20;47.30;;;;;;5007447;28;20068;-82
2021/05/19 10:57:57;;;;;;;3.13;0.60;;;19.90;49.70;;;;;;5012571;28;20107;-79
2021/05/19 11:00:28;;;;;;;3.08;0.50;;;19.80;50.10;;;;;;5011525;28;20038;-82
2021/05/19 11:02:57;;;;;;;2.97;0.50;;;19.60;51.00;;;;;;5009405;28;20030;-80
2021/05/19 11:05:28;;;;;;;4.15;0.68;;;19.20;52.70;;;;;;5011402;28;20030;-84
2021/05/19 11:08:06;;;;;;;3.45;0.60;;;19.30;54.00;;;;;;5011401;28;20030;-80
2021/05/19 11:10:34;;;;;;;3.90;0.65;;;19.50;54.70;;;;;;5010785;28;20041;-80
2021/05/19 11:13:00;;;;;;;3.10;0.50;;;19.80;53.70;;;;;;5007018;28;20061;-78
2021/05/19 11:15:54;;;;;;;4.35;0.40;;;20.40;52.50;;;;;;5011328;28;20072;-82
2021/05/19 11:19:20;;;;;;;2.53;0.40;;;21.20;50.50;;;;;;5011749;28;20025;-77
2021/05/19 11:21:21;;;;;;;3.08;0.60;;;21.70;48.70;;;;;;5009405;28;20030;-78
2021/05/19 11:24:11;;;;;;;4.30;0.88;;;21.80;48.60;;;;;;5010526;28;20048;-77
2021/05/19 11:26:38;;;;;;;2.83;0.70;;;21.80;48.60;;;;;;4991323;28;20034;-78
2021/05/19 11:29:04;;;;;;;5.35;0.80;;;21.50;49.80;;;;;;5010015;28;20053;-81
2021/05/19 11:31:40;;;;;;;3.38;0.60;;;20.90;52.50;;;;;;4992382;28;20461;-84
2021/05/19 11:34:06;;;;;;;5.30;1.00;;;20.30;55.40;;;;;;5011305;28;20034;-84
2021/05/19 11:36:39;;;;;;;4.75;1.10;;;19.60;57.40;;;;;;4994264;28;20389;-83
2021/05/19 11:39:21;;;;;;;3.13;1.00;;;19.10;57.60;;;;;;5014101;28;20022;-84
2021/05/19 11:41:47;;;;;;;4.00;1.23;;;18.40;60.10;;;;;;5010627;28;20117;-84
2021/05/19 11:44:34;;;;;;;5.57;1.80;;;18.30;61.70;;;;;;5012075;28;20041;-85
2021/05/19 11:47:00;;;;;;;5.32;1.20;;;18.80;62.40;;;;;;5010037;28;20041;-86
2021/05/19 11:49:27;;;;;;;3.33;1.08;;;19.20;62.50;;;;;;5012592;28;20096;-85
2021/05/19 11:51:53;;;;;;;4.32;1.02;;;19.80;62.30;;;;;;5009925;28;20109;-85
2021/05/19 11:54:21;;;;;;;4.25;1.33;;;20.50;61.10;;;;;;5009947;28;20322;-83
2021/05/19 11:56:49;;;;;;;5.50;1.23;;;20.90;60.10;;;;;;5009277;28;20145;-82
2021/05/19 11:59:22;;;;;;;4.63;0.90;;;21.30;58.70;;;;;;5010297;28;20036;-82
2021/05/19 12:02:04;;;;;;;4.38;0.98;;;21.20;53.70;;;;;;5009310;28;20026;-82
2021/05/19 12:04:33;;;;;;;6.45;2.20;;;20.30;52.70;;;;;;5010291;28;20114;-81
2021/05/19 12:07:01;;;;;;;6.22;1.13;;;19.90;57.10;;;;;;5013976;28;20079;-81
2021/05/19 12:09:43;;;;;;;3.25;0.70;;;20.00;57.50;;;;;;5014319;28;20104;-80
2021/05/19 12:12:14;;;;;;;2.97;0.65;;;19.90;55.20;;;;;;4982695;28;20025;-81
2021/05/19 12:14:57;;;;;;;2.28;0.80;;;19.90;55.20;;;;;;4992787;28;20022;-82
2021/05/19 12:17:26;;;;;;;5.60;2.25;;;19.90;55.00;;;;;;5011362;28;20053;-79
2021/05/19 12:19:52;;;;;;;2.80;0.68;;;20.00;55.00;;;;;;4990234;28;20052;-80
2021/05/19 12:22:22;;;;;;;4.05;0.88;;;20.20;56.10;;;;;;5005849;28;20052;-79
2021/05/19 12:24:48;;;;;;;1.90;0.70;;;20.60;54.40;;;;;;5008439;28;20061;-80
2021/05/19 12:27:20;;;;;;;2.05;0.60;;;20.80;53.20;;;;;;5009341;28;20042;-79
2021/05/19 12:29:49;;;;;;;4.10;0.90;;;20.90;52.20;;;;;;5009273;28;20057;-79
2021/05/19 12:32:28;;;;;;;4.43;1.50;;;20.90;52.30;;;;;;5011289;28;20057;-80
2021/05/19 12:35:09;;;;;;;4.63;2.45;;;21.10;54.00;;;;;;5002610;28;20026;-78
2021/05/19 12:37:48;;;;;;;4.70;1.70;;;21.10;53.50;;;;;;5004459;28;20030;-79
2021/05/19 12:40:25;;;;;;;2.83;1.40;;;21.00;52.00;;;;;;5011759;28;20029;-79
2021/05/19 12:42:57;;;;;;;4.53;1.17;;;20.90;51.90;;;;;;5009235;28;20474;-79
2021/05/19 12:45:31;;;;;;;2.88;1.42;;;20.80;51.60;;;;;;5011277;28;20032;-80
2021/05/19 12:48:15;;;;;;;3.28;1.05;;;20.50;52.30;;;;;;5010494;28;20041;-78
2021/05/19 12:51:01;;;;;;;5.70;2.25;;;20.40;52.10;;;;;;5009969;28;20030;-84
2021/05/19 12:53:47;;;;;;;5.78;2.40;;;20.40;53.20;;;;;;5018549;28;20042;-78
2021/05/19 12:56:24;;;;;;;4.53;3.05;;;20.50;53.30;;;;;;4995062;28;20060;-78
2021/05/19 12:59:02;;;;;;;4.13;1.50;;;20.50;53.40;;;;;;5010896;28;20026;-78
2021/05/19 13:01:41;;;;;;;3.17;1.02;;;20.30;52.40;;;;;;5011842;28;20018;-78
2021/05/19 13:04:07;;;;;;;5.15;1.90;;;20.00;53.00;;;;;;5002004;28;20030;-79
2021/05/19 13:06:34;;;;;;;3.85;1.80;;;19.70;53.80;;;;;;5011772;28;20436;-78